Time;durP1;ratioP1;P1;durP2;ratioP2;P2;SDS_P1;SDS_P2;PMS_P1;PMS_P2;Temp;Humidity;BMP_temperature;BMP_pressure;BME280_temperature;BME280_humidity;BME280_pressure;Samples;Min_cycle;Max_cycle;Signal;HPM_P1;HPM_P2
2022/01/23 00:00:05;;;;;;;27.95;11.73;;;;;;;5.53;86.20;103466.53;10481858;28;20049;-83
2022/01/23 00:05:12;;;;;;;24.95;12.35;;;;;;;5.67;85.89;103460.03;10519828;28;20479;-83
2022/01/23 00:10:14;;;;;;;22.88;10.43;;;;;;;5.68;85.27;103456.72;10512923;28;20522;-83
2022/01/23 00:20:38;;;;;;;20.73;10.30;;;;;;;5.59;84.46;103455.91;10504868;28;20130;-83
2022/01/23 00:31:00;;;;;;;19.83;9.07;;;;;;;5.49;84.56;103460.25;10516400;28;20048;-83
2022/01/23 00:36:03;;;;;;;21.20;9.20;;;;;;;5.31;86.07;103469.75;10505903;28;20086;-83
2022/01/23 00:41:04;;;;;;;17.98;9.35;;;;;;;5.25;86.03;103464.06;10493241;28;20048;-83
2022/01/23 00:51:20;;;;;;;16.80;7.70;;;;;;;5.12;84.64;103461.19;10459230;28;20580;-83
2022/01/23 00:56:21;;;;;;;14.32;7.22;;;;;;;4.98;85.72;103468.53;10499966;28;20042;-83
2022/01/23 01:01:26;;;;;;;12.95;6.32;;;;;;;5.14;85.19;103470.78;10491816;28;20040;-83
2022/01/23 01:06:28;;;;;;;13.82;6.35;;;;;;;5.14;84.93;103475.00;10525070;28;20040;-83
2022/01/23 01:16:59;;;;;;;14.32;6.65;;;;;;;5.35;85.51;103486.25;10519245;28;20051;-84
2022/01/23 01:38:20;;;;;;;21.80;8.30;;;;;;;5.32;86.88;103435.78;10516949;28;20079;-83
2022/01/23 01:43:22;;;;;;;19.15;8.48;;;;;;;5.54;85.78;103450.44;10490751;28;20492;-83
2022/01/23 01:48:25;;;;;;;16.85;9.68;;;;;;;5.57;85.42;103460.91;10512221;28;20402;-84
2022/01/23 01:53:35;;;;;;;22.40;10.50;;;;;;;5.60;85.86;103453.53;10482887;28;20072;-83
2022/01/23 02:09:17;;;;;;;24.52;11.35;;;;;;;5.65;86.13;103457.38;10507747;28;20040;-83
2022/01/23 02:51:45;;;;;;;37.80;14.25;;;;;;;5.43;87.62;103435.78;10498310;28;20499;-83
2022/01/23 02:56:51;;;;;;;35.40;14.60;;;;;;;5.38;87.47;103438.84;10518027;28;20131;-83
2022/01/23 03:02:27;;;;;;;33.85;16.02;;;;;;;5.37;87.51;103447.28;10493324;28;20044;-84
2022/01/23 03:08:04;;;;;;;36.00;15.77;;;;;;;5.78;85.35;103443.06;10499265;28;20037;-84
2022/01/23 03:34:05;;;;;;;53.00;20.02;;;;;;;5.75;86.10;103458.19;10495783;28;20099;-83
2022/01/23 03:39:08;;;;;;;65.68;24.75;;;;;;;5.81;85.99;103458.69;10496626;28;20500;-83
2022/01/23 03:44:11;;;;;;;62.58;24.85;;;;;;;5.84;86.31;103462.41;10462442;28;20053;-83
2022/01/23 03:49:33;;;;;;;65.95;24.90;;;;;;;5.79;85.57;103461.13;10482086;28;20075;-83
2022/01/23 03:54:49;;;;;;;71.45;27.10;;;;;;;5.54;86.77;103463.22;10491815;28;20050;-84
2022/01/23 03:59:51;;;;;;;70.32;27.45;;;;;;;5.66;87.36;103469.41;10491460;28;20381;-83
2022/01/23 04:04:53;;;;;;;68.18;26.83;;;;;;;5.51;86.63;103468.06;10493235;28;20048;-84
2022/01/23 04:09:57;;;;;;;68.57;26.73;;;;;;;5.84;85.76;103470.09;10494573;28;20094;-84
2022/01/23 04:15:30;;;;;;;76.35;28.35;;;;;;;5.67;86.13;103473.75;10497850;28;20048;-84
2022/01/23 04:20:48;;;;;;;77.95;28.13;;;;;;;5.70;85.57;103481.69;10503400;28;20113;-84
2022/01/23 05:03:56;;;;;;;76.88;29.45;;;;;;;5.54;87.04;103478.56;10467112;28;20136;-84
2022/01/23 05:08:49;;;;;;;75.82;28.42;;;;;;;5.55;87.52;103483.81;10502698;28;20051;-83
2022/01/23 05:14:18;;;;;;;84.15;30.10;;;;;;;5.60;86.88;103480.75;10488281;28;20064;-84
2022/01/23 05:19:20;;;;;;;86.18;29.25;;;;;;;5.32;87.54;103479.22;10486149;28;20579;-84
2022/01/23 05:24:27;;;;;;;81.95;30.58;;;;;;;5.12;88.46;103491.84;10480399;28;20075;-84
2022/01/23 05:29:29;;;;;;;83.95;29.40;;;;;;;5.53;86.98;103482.75;10501235;28;20071;-83
2022/01/23 05:34:31;;;;;;;97.88;29.95;;;;;;;5.80;86.09;103483.41;10480274;28;20450;-84
2022/01/23 05:39:43;;;;;;;86.43;29.02;;;;;;;5.84;85.99;103492.25;10486270;28;20048;-83
2022/01/23 05:44:45;;;;;;;82.20;30.10;;;;;;;5.69;86.54;103487.59;10509997;28;20045;-84
2022/01/23 05:49:48;;;;;;;91.20;30.38;;;;;;;5.57;86.51;103478.81;10490911;28;20051;-84
2022/01/23 05:55:07;;;;;;;92.70;29.52;;;;;;;5.72;86.50;103490.38;10500533;28;20048;-84
2022/01/23 06:00:15;;;;;;;88.18;29.48;;;;;;;5.82;85.49;103491.19;10486128;28;20059;-84
2022/01/23 06:05:26;;;;;;;91.32;30.33;;;;;;;5.76;85.77;103500.91;10491134;28;20119;-84
2022/01/23 06:10:52;;;;;;;89.38;32.03;;;;;;;5.88;85.85;103501.97;10491476;28;20044;-84
2022/01/23 06:15:57;;;;;;;83.50;29.70;;;;;;;5.57;86.18;103496.72;10501198;28;20045;-84
2022/01/23 06:21:01;;;;;;;86.63;30.48;;;;;;;5.51;86.34;103488.50;10517082;28;20499;-84
2022/01/23 06:26:17;;;;;;;87.78;30.52;;;;;;;5.53;86.66;103492.09;10517831;28;20051;-83
2022/01/23 06:31:21;;;;;;;92.47;30.85;;;;;;;5.74;85.89;103503.31;10500519;28;20550;-84
2022/01/23 06:36:23;;;;;;;95.13;30.35;;;;;;;5.75;85.75;103509.34;10486978;28;20036;-84
2022/01/23 06:41:29;;;;;;;81.40;29.52;;;;;;;5.90;85.42;103504.66;10514004;28;20059;-83
2022/01/23 06:46:40;;;;;;;87.68;28.88;;;;;;;5.74;85.63;103504.97;10510949;28;20140;-84
2022/01/23 06:51:42;;;;;;;87.32;28.90;;;;;;;5.79;85.05;103511.38;10473142;28;20052;-84
2022/01/23 06:56:45;;;;;;;84.05;31.10;;;;;;;5.61;85.99;103520.91;10520247;28;20051;-83
2022/01/23 07:01:47;;;;;;;80.13;28.00;;;;;;;5.67;85.35;103527.47;10513704;28;20130;-83
2022/01/23 07:07:02;;;;;;;75.93;27.27;;;;;;;5.87;85.16;103526.66;10478922;28;20127;-84
2022/01/23 07:12:07;;;;;;;67.22;26.88;;;;;;;5.63;85.08;103525.38;10506288;28;20498;-83
2022/01/23 07:17:29;;;;;;;76.35;29.15;;;;;;;5.78;85.76;103532.59;10490877;28;20613;-84
2022/01/23 07:22:37;;;;;;;70.70;27.58;;;;;;;5.91;84.28;103537.16;10513145;28;20044;-84
2022/01/23 07:27:48;;;;;;;68.22;25.20;;;;;;;5.64;85.59;103539.09;10493416;28;20049;-83
2022/01/23 07:33:03;;;;;;;84.88;28.23;;;;;;;5.58;86.24;103552.22;10499923;28;20093;-84
2022/01/23 07:38:05;;;;;;;68.82;26.90;;;;;;;5.29;86.58;103553.06;10500962;28;20048;-84
2022/01/23 07:43:17;;;;;;;79.07;27.13;;;;;;;5.26;87.67;103565.56;10512377;28;20560;-84
2022/01/23 07:48:37;;;;;;;75.53;26.33;;;;;;;5.64;86.40;103573.22;10507847;28;20048;-83
2022/01/23 07:53:57;;;;;;;62.75;25.65;;;;;;;5.39;86.17;103571.03;10499737;28;20056;-83
2022/01/23 07:59:12;;;;;;;67.88;24.38;;;;;;;5.71;86.22;103580.69;10499796;28;20070;-83
2022/01/23 08:04:31;;;;;;;78.22;28.45;;;;;;;5.39;87.19;103580.34;10452813;28;20378;-84
2022/01/23 08:09:33;;;;;;;76.13;27.42;;;;;;;5.80;85.71;103589.94;10486707;28;20127;-84
2022/01/23 08:14:35;;;;;;;67.45;25.60;;;;;;;5.79;85.40;103577.91;10481150;28;20554;-84
2022/01/23 08:19:36;;;;;;;93.32;29.17;;;;;;;5.40;87.15;103574.50;10480323;28;20044;-84
2022/01/23 08:24:37;;;;;;;86.53;28.70;;;;;;;5.51;87.03;103580.56;10478152;28;20041;-84
2022/01/23 08:29:39;;;;;;;78.22;28.75;;;;;;;5.84;85.98;103592.91;10486749;28;20129;-83
2022/01/23 08:34:41;;;;;;;113.43;30.63;;;;;;;5.69;87.09;103597.56;10480287;28;20487;-84
2022/01/23 08:39:43;;;;;;;95.00;31.02;;;;;;;5.84;86.90;103597.13;10505796;28;20045;-84
2022/01/23 08:44:46;;;;;;;96.53;30.15;;;;;;;5.68;86.40;103599.97;10489791;28;20094;-84
2022/01/23 08:49:49;;;;;;;109.13;32.10;;;;;;;5.57;86.93;103606.69;10474460;28;20411;-84
2022/01/23 08:54:56;;;;;;;88.00;29.55;;;;;;;5.90;86.97;103602.78;10486698;28;20110;-84
2022/01/23 08:59:58;;;;;;;107.40;33.50;;;;;;;5.50;88.70;103600.13;10458621;28;20505;-83
2022/01/23 09:05:00;;;;;;;105.22;32.63;;;;;;;5.76;87.20;103600.66;10468395;28;20052;-83
2022/01/23 09:10:03;;;;;;;106.45;33.58;;;;;;;5.69;87.23;103607.81;10481477;28;20052;-83
2022/01/23 09:15:06;;;;;;;89.93;30.20;;;;;;;6.08;86.51;103603.53;10490350;28;20106;-83
2022/01/23 09:20:08;;;;;;;95.20;30.35;;;;;;;5.83;87.01;103600.47;10505078;28;20098;-84
2022/01/23 09:25:10;;;;;;;96.40;31.75;;;;;;;6.25;86.47;103606.69;10488608;28;20040;-84
2022/01/23 09:30:20;;;;;;;128.95;41.95;;;;;;;5.80;87.45;103612.97;10472468;28;20065;-84
2022/01/23 09:35:22;;;;;;;100.28;33.85;;;;;;;6.19;86.44;103612.16;10484225;28;20414;-84
2022/01/23 09:40:24;;;;;;;123.10;40.17;;;;;;;6.48;85.99;103621.47;10482564;28;20044;-84
2022/01/23 09:45:27;;;;;;;98.97;31.90;;;;;;;6.06;86.47;103609.31;10500528;28;20135;-84
2022/01/23 09:50:30;;;;;;;86.80;30.67;;;;;;;5.89;86.88;103626.56;10488224;28;20040;-84
2022/01/23 09:55:33;;;;;;;112.53;41.92;;;;;;;5.97;86.14;103620.47;10522829;28;20488;-84
2022/01/23 10:00:35;;;;;;;102.18;33.17;;;;;;;6.11;86.61;103623.38;10466787;28;20106;-84
2022/01/23 10:05:37;;;;;;;107.22;31.25;;;;;;;6.45;86.01;103621.19;10514606;28;20040;-84
2022/01/23 10:10:40;;;;;;;85.90;30.35;;;;;;;6.49;85.39;103630.97;10480358;28;20076;-84
2022/01/23 10:15:44;;;;;;;84.63;29.77;;;;;;;6.72;84.90;103624.34;10485613;28;20037;-84
2022/01/23 10:20:47;;;;;;;85.78;28.67;;;;;;;6.80;84.72;103628.47;10470962;28;20326;-85
2022/01/23 10:25:51;;;;;;;81.38;28.58;;;;;;;6.28;85.90;103628.34;10468615;28;20040;-84
2022/01/23 10:30:57;;;;;;;89.70;29.88;;;;;;;6.33;85.67;103632.19;10463383;28;20072;-84
2022/01/23 10:36:04;;;;;;;90.05;29.20;;;;;;;6.56;85.76;103628.16;10493768;28;20076;-84
2022/01/23 10:41:43;;;;;;;83.28;28.55;;;;;;;6.64;85.09;103626.25;10520693;28;20105;-84
2022/01/23 10:51:41;;;;;;;102.65;46.25;;;;;;;6.39;85.54;103625.78;10503003;28;20045;-84
2022/01/23 10:56:48;;;;;;;88.05;27.88;;;;;;;6.59;85.36;103624.97;10473622;28;20535;-83
2022/01/23 11:02:03;;;;;;;96.05;30.58;;;;;;;6.83;84.56;103615.91;10524827;28;20091;-83
2022/01/23 11:07:07;;;;;;;84.63;29.67;;;;;;;6.67;84.71;103622.28;10493635;28;20099;-83
2022/01/23 11:12:27;;;;;;;86.00;28.08;;;;;;;6.87;84.35;103612.84;10496511;28;20458;-83
2022/01/23 11:17:29;;;;;;;75.20;28.10;;;;;;;7.05;84.82;103607.47;10502624;28;20459;-82
2022/01/23 11:22:35;;;;;;;77.80;28.45;;;;;;;6.60;84.61;103609.72;10496121;28;20487;-83
2022/01/23 11:27:38;;;;;;;76.20;27.48;;;;;;;6.62;84.19;103610.75;10505181;28;20213;-83
2022/01/23 11:32:42;;;;;;;85.50;28.00;;;;;;;7.11;84.56;103608.88;10517128;28;20055;-83
2022/01/23 11:37:48;;;;;;;72.85;26.58;;;;;;;7.17;83.29;103598.25;10498383;28;20040;-83
2022/01/23 11:53:48;;;;;;;76.65;31.95;;;;;;;7.16;82.22;103578.50;10517596;28;20048;-84
2022/01/23 11:58:53;;;;;;;76.03;28.53;;;;;;;7.25;82.18;103576.72;10517753;28;20076;-84
2022/01/23 12:04:11;;;;;;;75.03;27.30;;;;;;;7.26;82.50;103573.34;10519366;28;20048;-84
2022/01/23 12:09:13;;;;;;;77.45;27.02;;;;;;;6.76;82.36;103572.59;10484025;28;20048;-84
2022/01/23 12:19:44;;;;;;;69.68;25.50;;;;;;;7.07;82.68;103564.91;10500826;28;20041;-84
2022/01/23 12:24:50;;;;;;;73.22;26.08;;;;;;;7.38;81.06;103567.44;10480159;28;20049;-84
2022/01/23 12:29:55;;;;;;;66.30;25.52;;;;;;;7.59;80.25;103561.50;10502230;28;20539;-84
2022/01/23 12:35:03;;;;;;;63.45;24.23;;;;;;;7.45;81.01;103556.91;10491938;28;20079;-83
2022/01/23 12:40:33;;;;;;;55.22;23.15;;;;;;;7.59;79.64;103548.66;10485715;28;20376;-84
2022/01/23 12:45:45;;;;;;;49.07;21.40;;;;;;;7.57;80.01;103545.06;10483985;28;20055;-84
2022/01/23 12:50:47;;;;;;;54.53;22.90;;;;;;;7.44;80.87;103542.28;10512764;28;20056;-83
2022/01/23 12:56:10;;;;;;;47.28;20.92;;;;;;;7.23;79.88;103547.47;10490712;28;20047;-83
2022/01/23 13:01:18;;;;;;;49.65;22.80;;;;;;;7.27;80.06;103544.38;10476069;28;20418;-83
2022/01/23 13:06:33;;;;;;;45.92;20.70;;;;;;;7.52;78.43;103532.69;10482643;28;20448;-83
2022/01/23 13:12:26;;;;;;;38.67;18.02;;;;;;;7.28;77.70;103533.34;10483767;28;20086;-83
2022/01/23 13:33:14;;;;;;;32.40;14.48;;;;;;;7.58;77.28;103541.75;10501653;28;20076;-85
2022/01/23 13:38:17;;;;;;;39.15;17.42;;;;;;;7.19;77.79;103537.72;10489030;28;20044;-84
2022/01/23 14:04:43;;;;;;;37.95;17.67;;;;;;;7.21;77.87;103533.63;10477035;28;20044;-84
2022/01/23 14:09:47;;;;;;;39.13;17.35;;;;;;;7.36;78.22;103538.22;10481390;28;20559;-85
2022/01/23 14:15:03;;;;;;;41.47;18.58;;;;;;;7.02;78.97;103527.75;10507136;28;20657;-84
2022/01/23 14:20:07;;;;;;;41.63;18.73;;;;;;;7.13;78.45;103529.53;10520387;28;20040;-85
2022/01/23 14:25:13;;;;;;;35.35;16.92;;;;;;;6.81;79.46;103527.78;10479295;28;20079;-84
2022/01/23 14:30:21;;;;;;;39.17;17.75;;;;;;;6.99;79.51;103525.84;10489565;28;20101;-84
2022/01/23 14:35:28;;;;;;;38.85;18.98;;;;;;;6.61;79.01;103532.09;10489124;28;20488;-84
2022/01/23 14:40:29;;;;;;;39.05;19.00;;;;;;;6.92;78.84;103524.44;10477355;28;20137;-84
2022/01/23 14:45:40;;;;;;;40.70;18.98;;;;;;;6.77;79.93;103533.41;10493602;28;20072;-84
2022/01/23 14:50:46;;;;;;;42.50;21.90;;;;;;;6.84;79.33;103530.56;10477720;28;20603;-83
2022/01/23 14:55:54;;;;;;;41.70;19.33;;;;;;;6.97;78.38;103527.38;10507628;28;20092;-84
2022/01/23 15:00:57;;;;;;;41.17;18.40;;;;;;;6.82;78.73;103532.09;10493419;28;20044;-84
2022/01/23 15:06:07;;;;;;;39.70;18.70;;;;;;;7.03;78.54;103537.25;10481930;28;20502;-84
2022/01/23 15:11:09;;;;;;;37.70;18.20;;;;;;;7.17;77.68;103538.38;10475548;28;20463;-84
2022/01/23 15:16:12;;;;;;;38.15;18.17;;;;;;;7.09;78.15;103542.88;10492964;28;20052;-84
2022/01/23 15:21:14;;;;;;;40.28;18.33;;;;;;;6.90;77.91;103549.03;10479729;28;20048;-85
2022/01/23 15:26:15;;;;;;;40.47;17.52;;;;;;;6.80;78.55;103552.47;10472758;28;20048;-85
2022/01/23 15:31:19;;;;;;;36.33;18.25;;;;;;;6.83;78.90;103556.97;10480947;28;20094;-85
2022/01/23 15:36:21;;;;;;;41.58;19.10;;;;;;;7.02;78.23;103546.59;10478805;28;20143;-84
2022/01/23 15:41:22;;;;;;;38.97;18.65;;;;;;;6.90;78.63;103550.69;10492366;28;20086;-84
2022/01/23 15:46:24;;;;;;;43.75;20.75;;;;;;;6.80;78.79;103543.91;10474646;28;20070;-84
2022/01/23 15:51:26;;;;;;;41.03;19.27;;;;;;;6.70;79.88;103547.38;10480554;28;20127;-85
2022/01/23 15:56:27;;;;;;;40.05;19.55;;;;;;;6.66;79.27;103546.19;10472656;28;20045;-84
2022/01/23 16:01:29;;;;;;;43.70;19.88;;;;;;;6.71;79.63;103540.56;10489206;28;20234;-84
2022/01/23 16:06:31;;;;;;;38.55;19.38;;;;;;;6.83;79.19;103531.34;10498265;28;20525;-84
2022/01/23 16:11:33;;;;;;;38.50;18.30;;;;;;;6.82;79.33;103532.09;10484880;28;20480;-84
2022/01/23 16:16:35;;;;;;;37.22;17.48;;;;;;;6.65;79.98;103529.06;10506361;28;20076;-84
2022/01/23 16:21:36;;;;;;;33.28;16.83;;;;;;;6.32;81.43;103527.09;10485973;28;20128;-84
2022/01/23 16:26:38;;;;;;;38.65;18.02;;;;;;;6.27;81.60;103534.38;10544995;28;20056;-84
2022/01/23 16:31:41;;;;;;;35.58;16.38;;;;;;;6.44;81.47;103529.78;10529046;28;20406;-84
2022/01/23 16:36:43;;;;;;;31.63;14.93;;;;;;;6.32;80.27;103530.53;10505882;28;20051;-85
2022/01/23 16:41:45;;;;;;;32.78;13.63;;;;;;;6.41;79.58;103537.22;10492415;28;20044;-85
2022/01/23 16:46:46;;;;;;;30.50;13.63;;;;;;;6.18;79.18;103544.69;10476355;28;20067;-85
2022/01/23 16:52:11;;;;;;;27.50;13.10;;;;;;;6.24;78.34;103544.31;10485562;28;20049;-84
2022/01/23 16:57:14;;;;;;;22.00;10.48;;;;;;;6.32;77.28;103551.00;10508491;28;20464;-84
2022/01/23 17:02:15;;;;;;;19.30;9.68;;;;;;;6.30;76.65;103549.97;10518076;28;20037;-84
2022/01/23 17:07:18;;;;;;;19.85;9.82;;;;;;;6.25;78.08;103551.25;10495067;28;20036;-85
2022/01/23 17:12:19;;;;;;;22.25;10.15;;;;;;;6.33;77.55;103554.47;10520403;28;20085;-85
2022/01/23 17:17:21;;;;;;;22.02;10.98;;;;;;;6.15;80.00;103547.00;10519892;28;20081;-84
2022/01/23 17:22:23;;;;;;;22.33;11.20;;;;;;;6.30;79.57;103555.09;10520507;28;20071;-85
2022/01/23 17:27:25;;;;;;;21.40;10.10;;;;;;;6.35;77.93;103550.38;10515445;28;20049;-85
2022/01/23 17:32:27;;;;;;;26.00;11.95;;;;;;;6.34;78.89;103544.38;10495038;28;20110;-85
2022/01/23 17:37:49;;;;;;;20.88;10.55;;;;;;;6.39;78.27;103543.84;10535388;28;20510;-85
2022/01/23 17:42:50;;;;;;;27.33;13.27;;;;;;;6.43;77.67;103540.81;10535079;28;20048;-85
2022/01/23 17:52:58;;;;;;;27.40;11.98;;;;;;;6.00;79.34;103538.00;10506752;28;20040;-84
2022/01/23 17:58:00;;;;;;;26.50;11.98;;;;;;;6.08;80.22;103541.19;10498948;28;20071;-85
2022/01/23 18:03:02;;;;;;;27.23;12.88;;;;;;;6.23;79.26;103542.53;10469941;28;20055;-85
2022/01/23 18:08:06;;;;;;;27.00;13.77;;;;;;;6.19;79.15;103546.50;10501016;28;20028;-84
2022/01/23 18:13:10;;;;;;;27.40;13.15;;;;;;;6.24;78.87;103549.44;10470165;28;20495;-84
2022/01/23 18:18:12;;;;;;;24.73;11.52;;;;;;;6.09;79.33;103548.13;10465891;28;20036;-84
2022/01/23 18:23:14;;;;;;;22.63;10.85;;;;;;;6.06;79.71;103551.31;10478035;28;20048;-84
2022/01/23 18:28:16;;;;;;;19.80;9.63;;;;;;;5.94;78.33;103557.91;10504644;28;20135;-84
2022/01/23 18:33:18;;;;;;;19.75;10.50;;;;;;;5.75;77.77;103560.50;10486812;28;20106;-84
2022/01/23 18:38:20;;;;;;;22.52;10.70;;;;;;;5.79;77.74;103555.78;10496315;28;20067;-84
2022/01/23 18:43:27;;;;;;;20.75;9.98;;;;;;;6.10;76.61;103557.59;10476457;28;20048;-84
2022/01/23 18:48:29;;;;;;;23.00;11.77;;;;;;;5.99;77.49;103556.66;10472497;28;20047;-84
2022/01/23 18:53:37;;;;;;;19.48;9.98;;;;;;;5.98;78.18;103565.06;10468587;28;20064;-84
2022/01/23 18:58:48;;;;;;;21.13;9.65;;;;;;;5.66;77.72;103569.16;10513897;28;20071;-85
2022/01/23 19:04:04;;;;;;;18.58;9.52;;;;;;;5.85;77.75;103568.19;10474655;28;20060;-84
2022/01/23 19:14:13;;;;;;;18.02;8.63;;;;;;;5.99;76.92;103552.47;10511963;28;20094;-84
2022/01/23 19:19:15;;;;;;;17.15;8.82;;;;;;;5.65;78.57;103552.00;10477881;28;20207;-85
2022/01/23 19:24:20;;;;;;;17.13;9.00;;;;;;;5.85;76.38;103552.84;10485052;28;20549;-84
2022/01/23 19:29:29;;;;;;;14.35;7.63;;;;;;;5.82;76.60;103552.59;10496939;28;20090;-84
2022/01/23 19:34:36;;;;;;;13.88;7.30;;;;;;;5.76;77.33;103542.72;10473861;28;20110;-84
2022/01/23 19:40:43;;;;;;;13.48;7.72;;;;;;;5.78;75.69;103540.28;10481466;28;20068;-84
2022/01/23 19:45:46;;;;;;;14.10;8.27;;;;;;;5.59;77.18;103541.22;10491366;28;20052;-84
2022/01/23 19:50:49;;;;;;;14.15;8.45;;;;;;;5.69;76.71;103523.41;10450700;28;20053;-84
2022/01/23 19:55:51;;;;;;;14.85;8.70;;;;;;;5.75;77.29;103529.81;10483481;28;20061;-84
2022/01/23 20:00:55;;;;;;;14.93;8.55;;;;;;;5.48;77.46;103524.94;10481272;28;20068;-84
2022/01/23 20:05:57;;;;;;;12.23;7.25;;;;;;;5.79;74.98;103526.75;10487606;28;20037;-84
2022/01/23 20:11:11;;;;;;;18.02;8.57;;;;;;;5.69;77.42;103531.06;10501143;28;20093;-84
2022/01/23 20:16:13;;;;;;;17.88;8.70;;;;;;;5.75;77.01;103532.34;10479291;28;20391;-84
2022/01/23 20:21:15;;;;;;;15.45;8.48;;;;;;;5.66;77.15;103535.00;10482577;28;20044;-84
2022/01/23 20:26:37;;;;;;;13.45;7.55;;;;;;;5.76;77.58;103531.59;10493686;28;20120;-83
2022/01/23 20:31:42;;;;;;;14.25;8.63;;;;;;;5.68;74.29;103528.34;10482645;28;20045;-84
2022/01/23 20:36:44;;;;;;;15.98;8.85;;;;;;;5.63;76.04;103520.25;10481956;28;20075;-84
2022/01/23 20:41:47;;;;;;;13.85;8.18;;;;;;;5.59;75.68;103513.09;10482778;28;20467;-84
2022/01/23 20:46:48;;;;;;;15.70;8.77;;;;;;;5.63;73.96;103512.59;10482020;28;20466;-83
2022/01/23 20:51:59;;;;;;;14.98;8.45;;;;;;;5.78;73.02;103514.69;10490192;28;20135;-84
2022/01/23 20:57:03;;;;;;;;;;;;;;;5.73;73.76;103504.09;10489357;28;20036;-84
2022/01/23 21:02:05;;;;;;;13.88;8.02;;;;;;;5.66;75.04;103505.19;10454451;28;19920;-84
2022/01/23 21:07:08;;;;;;;13.68;7.80;;;;;;;5.63;72.77;103504.91;10491978;28;20098;-83
2022/01/23 21:12:12;;;;;;;13.85;8.20;;;;;;;5.66;73.53;103502.66;10480849;28;20047;-83
2022/01/23 21:22:46;;;;;;;15.52;8.27;;;;;;;5.75;73.77;103494.88;10479832;28;20492;-83
2022/01/23 21:43:30;;;;;;;14.02;7.70;;;;;;;5.20;77.25;103490.88;10485452;28;20403;-84
2022/01/23 21:48:33;;;;;;;39.25;16.60;;;;;;;5.37;73.58;103480.53;10482465;28;20098;-83
2022/01/23 21:53:37;;;;;;;30.98;16.33;;;;;;;5.63;73.16;103481.91;10478991;28;20097;-84
2022/01/23 21:58:39;;;;;;;28.65;13.63;;;;;;;5.53;74.41;103484.44;10482488;28;20037;-84
2022/01/23 22:03:43;;;;;;;26.42;13.70;;;;;;;5.68;74.57;103488.34;10482240;28;20487;-84
2022/01/23 22:08:47;;;;;;;29.88;13.88;;;;;;;5.75;73.60;103494.00;10468192;28;20610;-84
2022/01/23 22:19:15;;;;;;;33.60;16.52;;;;;;;5.80;73.56;103497.84;10489791;28;20044;-84
2022/01/23 22:29:37;;;;;;;34.25;14.90;;;;;;;5.86;74.08;103488.13;10477463;28;20051;-84
2022/01/23 22:34:39;;;;;;;31.38;15.27;;;;;;;5.82;73.49;103506.56;10469875;28;20038;-84
2022/01/23 22:39:40;;;;;;;31.98;15.90;;;;;;;5.66;74.80;103499.22;10491320;28;20152;-84
2022/01/23 22:45:28;;;;;;;36.00;18.88;;;;;;;5.65;74.17;103503.41;10477883;28;20056;-84
2022/01/23 22:50:16;;;;;;;39.30;17.92;;;;;;;5.32;76.32;103497.13;10476073;28;20095;-83
2022/01/23 22:55:17;;;;;;;38.03;19.70;;;;;;;5.81;74.75;103497.06;10487917;28;20049;-83
2022/01/23 23:00:40;;;;;;;45.08;20.70;;;;;;;5.68;74.47;103503.69;10493286;28;20123;-83
2022/01/23 23:05:59;;;;;;;45.40;21.63;;;;;;;5.53;74.39;103492.09;10468732;28;20557;-83
2022/01/23 23:11:03;;;;;;;42.22;21.13;;;;;;;5.48;73.38;103496.81;10488976;28;20036;-83
2022/01/23 23:16:08;;;;;;;44.80;21.27;;;;;;;5.57;73.81;103499.28;10490636;28;20135;-84
2022/01/23 23:21:13;;;;;;;46.47;22.88;;;;;;;5.53;73.11;103498.09;10481498;28;20388;-84
2022/01/23 23:26:14;;;;;;;48.33;23.45;;;;;;;5.64;74.00;103505.84;10484294;28;20048;-84
2022/01/23 23:31:17;;;;;;;53.00;23.50;;;;;;;5.57;74.10;103499.28;10482964;28;20131;-83
2022/01/23 23:36:23;;;;;;;48.10;22.25;;;;;;;5.52;71.69;103496.31;10508623;28;20143;-84
2022/01/23 23:41:39;;;;;;;46.83;22.13;;;;;;;5.48;72.95;103493.34;10521048;28;20127;-84
2022/01/23 23:46:43;;;;;;;50.72;22.23;;;;;;;5.46;74.09;103494.88;10509802;28;20068;-84
2022/01/23 23:51:47;;;;;;;47.78;22.70;;;;;;;5.88;73.04;103491.72;10507245;28;20048;-83
2022/01/23 23:56:52;;;;;;;46.30;21.95;;;;;;;5.97;72.52;103492.53;10514392;28;20401;-83
